KWJF/WJF METAR and TAF weather

Enter ICAO airport designator
Station Type Date Time Source
KWJF METAR 2019/04/19 10:56 UTC NOAA

KWJF 191056Z AUTO 00000KT 10SM CLR 12/04 A3004 RMK AO2 SLP161 T01170044


Station Type Date Time Source
KWJF Decoded METAR 2019/04/19 10:56 UTC NOAA

LANCASTER FOX AIRFIELD, CA, United States (KWJF) 34-44N 118-13W
Apr 19, 2019 - 06:56 AM EDT / 2019.04.19 1056 UTC
Wind: Calm:0
Visibility: 10 mile(s):0
Sky conditions: clear
Temperature: 53.1 F (11.7 C)
Dew Point: 39.9 F (4.4 C)
Relative Humidity: 60%
Pressure (altimeter): 30.04 in. Hg (1017 hPa)
ob: KWJF 191056Z AUTO 00000KT 10SM CLR 12/04 A3004 RMK AO2 SLP161 T01170044
cycle: 11

Station Type Date Time Source
KWJF TAF 2019/04/19 06:39 UTC NOAA

TAF KWJF 190536Z 1906/2006 30008KT P6SM SCT250
FM190800 VRB03KT P6SM SCT250
FM192100 26012KT P6SM SCT250
FM200000 26018KT P6SM SCT250
FM200300 26012KT P6SM SCT250

Example: see airport list